Time;durP1;ratioP1;P1;durP2;ratioP2;P2;SDS_P1;SDS_P2;PMS_P1;PMS_P2;Temp;Humidity;BMP_temperature;BMP_pressure;BME280_temperature;BME280_humidity;BME280_pressure;Samples;Min_cycle;Max_cycle;Signal;HPM_P1;HPM_P2
2023/05/08 00:00:37;;;;;;;4.72;3.30;;;12.10;54.00;;;;;;4931022;29;20081;-64
2023/05/08 00:03:03;;;;;;;4.50;3.25;;;12.00;53.90;;;;;;4936128;29;20123;-65
2023/05/08 00:05:29;;;;;;;5.53;3.75;;;12.00;53.90;;;;;;4931765;29;20046;-65
2023/05/08 00:08:00;;;;;;;4.88;3.67;;;12.00;53.90;;;;;;4933524;29;20027;-63
2023/05/08 00:10:28;;;;;;;5.43;3.90;;;12.00;53.90;;;;;;4925020;29;20028;-65
2023/05/08 00:12:54;;;;;;;5.18;3.40;;;12.00;54.00;;;;;;4924286;29;20040;-63
2023/05/08 00:15:20;;;;;;;4.95;3.72;;;12.00;54.10;;;;;;4937108;29;20028;-65
2023/05/08 00:17:46;;;;;;;4.82;3.50;;;11.90;54.30;;;;;;4939768;29;20030;-60
2023/05/08 00:20:12;;;;;;;5.65;3.25;;;11.90;54.10;;;;;;4935582;29;20068;-65
2023/05/08 00:22:37;;;;;;;4.50;3.70;;;11.90;54.30;;;;;;4933799;29;20043;-56
2023/05/08 00:25:04;;;;;;;3.47;2.80;;;11.90;54.50;;;;;;4928719;29;20036;-57
2023/05/08 00:27:30;;;;;;;4.93;3.05;;;11.90;54.60;;;;;;4937104;29;20459;-59
2023/05/08 00:29:56;;;;;;;3.63;2.67;;;11.90;54.70;;;;;;4936669;29;20031;-63
2023/05/08 00:32:22;;;;;;;4.18;2.80;;;11.90;54.60;;;;;;4934551;29;20843;-56
2023/05/08 00:34:48;;;;;;;3.78;3.00;;;11.90;54.20;;;;;;4931373;29;20111;-57
2023/05/08 00:37:14;;;;;;;2.97;2.70;;;11.90;54.20;;;;;;4926699;29;20034;-60
2023/05/08 00:39:39;;;;;;;3.85;2.97;;;11.80;53.90;;;;;;4917718;29;20107;-62
2023/05/08 00:42:05;;;;;;;2.88;2.67;;;11.90;54.00;;;;;;4926151;29;20678;-58
2023/05/08 00:44:31;;;;;;;3.63;3.10;;;11.80;54.10;;;;;;4936302;29;20034;-58
2023/05/08 00:46:57;;;;;;;3.67;3.25;;;11.80;54.10;;;;;;4927113;29;20527;-64
2023/05/08 00:49:23;;;;;;;3.95;3.05;;;11.80;54.20;;;;;;4938882;29;20130;-59
2023/05/08 00:51:52;;;;;;;5.80;2.85;;;11.80;54.40;;;;;;4931581;29;20596;-60
2023/05/08 00:54:18;;;;;;;5.40;2.92;;;11.80;54.40;;;;;;4925530;29;20043;-64
2023/05/08 00:56:44;;;;;;;3.00;2.70;;;11.80;54.30;;;;;;4929394;29;20395;-57
2023/05/08 00:59:14;;;;;;;3.45;2.70;;;11.80;54.70;;;;;;4932103;29;20078;-56
2023/05/08 01:01:42;;;;;;;3.30;2.65;;;11.80;54.80;;;;;;4929502;29;20131;-51
2023/05/08 01:04:08;;;;;;;3.30;2.78;;;11.80;54.90;;;;;;4927516;29;20032;-51
2023/05/08 01:06:35;;;;;;;4.03;3.25;;;11.70;54.70;;;;;;4927835;29;20368;-57
2023/05/08 01:09:02;;;;;;;3.75;3.03;;;11.70;54.50;;;;;;4924514;29;20024;-57
2023/05/08 01:12:00;;;;;;;6.65;3.00;;;11.70;54.70;;;;;;4919799;29;20390;-60
2023/05/08 01:14:33;;;;;;;3.17;2.55;;;11.70;54.70;;;;;;4928906;29;20058;-61
2023/05/08 01:17:16;;;;;;;4.10;3.08;;;11.70;54.50;;;;;;4931804;29;20079;-56
2023/05/08 01:20:03;;;;;;;4.55;3.00;;;11.60;54.70;;;;;;4926921;29;20066;-56
2023/05/08 01:22:38;;;;;;;4.57;3.40;;;11.60;55.00;;;;;;4933809;29;20048;-58
2023/05/08 01:25:06;;;;;;;3.42;2.70;;;11.60;55.00;;;;;;4925503;29;20023;-58
2023/05/08 01:27:32;;;;;;;3.90;2.70;;;11.60;55.30;;;;;;4934415;29;20084;-64
2023/05/08 01:30:19;;;;;;;2.88;2.50;;;11.60;55.20;;;;;;4936299;29;20031;-63
2023/05/08 01:33:00;;;;;;;3.28;2.80;;;11.50;55.00;;;;;;4932463;29;20063;-62
2023/05/08 01:35:46;;;;;;;2.88;2.58;;;11.50;55.30;;;;;;4935181;29;20032;-64
2023/05/08 01:38:17;;;;;;;4.15;3.00;;;11.50;55.40;;;;;;4931096;29;20032;-64
2023/05/08 01:40:52;;;;;;;2.97;2.70;;;11.50;55.40;;;;;;4935587;29;20114;-56
2023/05/08 01:43:38;;;;;;;3.67;2.92;;;11.50;55.50;;;;;;4930882;29;20399;-56
2023/05/08 01:46:09;;;;;;;3.90;2.83;;;11.40;55.20;;;;;;4929887;29;20077;-63
2023/05/08 01:48:41;;;;;;;3.17;2.88;;;11.40;55.30;;;;;;4931095;29;20145;-65
2023/05/08 01:51:19;;;;;;;3.20;2.80;;;11.40;55.20;;;;;;4930439;29;20102;-55
2023/05/08 01:53:54;;;;;;;5.07;3.60;;;11.40;55.10;;;;;;4925510;29;20047;-57
2023/05/08 01:56:24;;;;;;;3.70;2.75;;;11.40;55.30;;;;;;4933280;29;20106;-58
2023/05/08 01:58:51;;;;;;;3.85;2.90;;;11.30;54.90;;;;;;4924593;29;20107;-58
2023/05/08 02:01:24;;;;;;;3.63;2.80;;;11.30;55.10;;;;;;4932037;29;20039;-55
2023/05/08 02:03:51;;;;;;;3.58;3.13;;;11.30;55.30;;;;;;4926840;29;20028;-56
2023/05/08 02:06:20;;;;;;;4.15;2.70;;;11.30;55.30;;;;;;4921821;29;20097;-57
2023/05/08 02:08:47;;;;;;;3.28;2.97;;;11.30;55.50;;;;;;4933402;29;20391;-58
2023/05/08 02:11:15;;;;;;;4.47;2.90;;;11.30;56.00;;;;;;4921791;29;20032;-57
2023/05/08 02:13:43;;;;;;;3.35;3.05;;;11.30;56.00;;;;;;4927325;29;20032;-57
2023/05/08 02:16:11;;;;;;;3.55;2.72;;;11.30;56.00;;;;;;4931050;29;20140;-63
2023/05/08 02:18:39;;;;;;;3.58;3.00;;;11.30;56.00;;;;;;4927299;29;20020;-61
2023/05/08 02:21:06;;;;;;;3.85;2.92;;;11.40;56.00;;;;;;4926832;29;20032;-58
2023/05/08 02:23:33;;;;;;;3.10;2.80;;;11.30;55.70;;;;;;4934951;29;20127;-58
2023/05/08 02:26:01;;;;;;;3.88;2.85;;;11.40;56.20;;;;;;4935786;29;20050;-58
2023/05/08 02:28:28;;;;;;;3.60;3.00;;;11.40;56.00;;;;;;4925850;29;20054;-57
2023/05/08 02:30:55;;;;;;;4.28;3.00;;;11.30;55.90;;;;;;4917401;29;20020;-60
2023/05/08 02:33:22;;;;;;;3.05;2.75;;;11.30;56.10;;;;;;4936969;29;20376;-65
2023/05/08 02:35:49;;;;;;;3.30;2.85;;;11.30;56.00;;;;;;4925901;29;20032;-63
2023/05/08 02:38:17;;;;;;;3.67;2.75;;;11.40;56.30;;;;;;4929137;29;20040;-64
2023/05/08 02:40:49;;;;;;;4.93;3.15;;;11.30;56.30;;;;;;4936248;29;20462;-55
2023/05/08 02:43:15;;;;;;;3.08;2.70;;;11.40;56.10;;;;;;4925020;29;20703;-56
2023/05/08 02:46:15;;;;;;;3.53;2.78;;;11.40;56.00;;;;;;4927340;29;20035;-58
2023/05/08 02:49:19;;;;;;;3.35;2.97;;;11.30;56.10;;;;;;4915390;29;20099;-61
2023/05/08 02:51:54;;;;;;;4.40;3.13;;;11.30;56.00;;;;;;4917839;29;20047;-64
2023/05/08 02:54:44;;;;;;;3.15;2.40;;;11.30;56.20;;;;;;4920615;29;20128;-64
2023/05/08 02:57:36;;;;;;;3.45;2.78;;;11.30;56.30;;;;;;4893476;29;20140;-55
2023/05/08 03:00:15;;;;;;;3.38;2.53;;;11.30;56.50;;;;;;4896038;29;20047;-55
2023/05/08 03:02:45;;;;;;;2.67;2.47;;;11.40;56.50;;;;;;4896883;29;20078;-57
2023/05/08 03:05:32;;;;;;;2.75;2.55;;;11.40;56.60;;;;;;4895800;29;20066;-57
2023/05/08 03:08:13;;;;;;;3.97;2.60;;;11.40;56.40;;;;;;4906172;29;20399;-57
2023/05/08 03:10:40;;;;;;;4.55;2.78;;;11.40;56.80;;;;;;4902301;29;20045;-62
2023/05/08 03:13:09;;;;;;;3.00;2.50;;;11.40;56.60;;;;;;4897205;29;20040;-63
2023/05/08 03:15:50;;;;;;;3.33;2.63;;;11.40;56.60;;;;;;4896085;29;20092;-63
2023/05/08 03:18:18;;;;;;;;;;;11.50;56.90;;;;;;4896098;29;20036;-58
2023/05/08 03:20:47;;;;;;;3.75;2.40;;;11.50;56.00;;;;;;4895656;29;20410;-57
2023/05/08 03:23:15;;;;;;;3.00;2.70;;;11.50;56.20;;;;;;4894796;29;20044;-58
2023/05/08 03:25:42;;;;;;;4.20;3.03;;;11.50;56.10;;;;;;4896279;29;20104;-54
2023/05/08 03:28:10;;;;;;;2.90;2.60;;;11.50;56.10;;;;;;4895134;29;20092;-54
2023/05/08 03:30:38;;;;;;;3.50;2.92;;;11.50;56.00;;;;;;4896208;29;20025;-55
2023/05/08 03:33:06;;;;;;;3.35;2.83;;;11.50;56.20;;;;;;4895540;29;20041;-55
2023/05/08 03:35:35;;;;;;;3.38;2.63;;;11.50;56.30;;;;;;4901719;29;20111;-56
2023/05/08 03:38:01;;;;;;;3.20;2.90;;;11.50;56.30;;;;;;4904406;29;20040;-59
2023/05/08 03:40:27;;;;;;;3.35;2.30;;;11.50;56.60;;;;;;4892236;29;20040;-56
2023/05/08 03:42:53;;;;;;;2.88;2.58;;;11.60;56.50;;;;;;4895973;29;20369;-55
2023/05/08 03:45:19;;;;;;;3.10;2.63;;;11.50;56.20;;;;;;4901504;29;20043;-55
2023/05/08 03:47:46;;;;;;;3.72;2.72;;;11.60;56.50;;;;;;4902012;29;20038;-59
2023/05/08 03:50:12;;;;;;;3.58;2.85;;;11.60;56.60;;;;;;4896134;29;20138;-58
2023/05/08 03:52:38;;;;;;;3.22;2.55;;;11.70;56.10;;;;;;4895720;29;20044;-59
2023/05/08 03:55:04;;;;;;;2.63;2.42;;;11.70;56.10;;;;;;4903143;29;20060;-60
2023/05/08 03:57:38;;;;;;;2.83;2.38;;;11.80;56.10;;;;;;4932080;29;20459;-59
2023/05/08 04:00:19;;;;;;;3.20;2.60;;;11.80;55.80;;;;;;4924269;29;20032;-60
2023/05/08 04:03:13;;;;;;;2.67;2.42;;;11.90;55.60;;;;;;4930483;29;20403;-58
2023/05/08 04:05:50;;;;;;;2.97;2.42;;;12.00;55.60;;;;;;4925861;29;20027;-56
2023/05/08 04:08:21;;;;;;;3.75;2.40;;;12.10;55.30;;;;;;4936225;29;20062;-65
2023/05/08 04:10:49;;;;;;;;;;;12.20;55.00;;;;;;4937867;29;20024;-56
2023/05/08 04:13:21;;;;;;;2.70;2.50;;;12.20;55.10;;;;;;4930421;29;20331;-52
2023/05/08 04:16:08;;;;;;;3.00;2.70;;;12.20;54.70;;;;;;4930987;29;20107;-57
2023/05/08 04:18:38;;;;;;;3.75;2.28;;;12.20;54.50;;;;;;4928380;29;20032;-56
2023/05/08 04:21:09;;;;;;;3.42;2.47;;;12.20;54.40;;;;;;4922806;29;20039;-58
2023/05/08 04:23:35;;;;;;;;;;;12.30;54.40;;;;;;4922877;29;20091;-58
2023/05/08 04:26:02;;;;;;;2.53;2.15;;;12.20;53.90;;;;;;4931609;29;19945;-59
2023/05/08 04:28:28;;;;;;;3.80;2.88;;;12.30;54.50;;;;;;4932036;29;20434;-58
2023/05/08 04:30:56;;;;;;;2.65;2.45;;;12.40;54.30;;;;;;4923706;29;20094;-53
2023/05/08 04:33:22;;;;;;;3.60;2.75;;;12.40;54.30;;;;;;4930418;29;20530;-50
2023/05/08 04:35:49;;;;;;;3.60;2.80;;;12.60;54.00;;;;;;4928071;29;20070;-58
2023/05/08 04:38:14;;;;;;;3.00;2.33;;;12.80;54.40;;;;;;4926758;29;20032;-58
2023/05/08 04:40:40;;;;;;;3.05;2.50;;;13.10;54.20;;;;;;4923470;29;20027;-53
2023/05/08 04:43:06;;;;;;;2.70;2.45;;;13.40;54.30;;;;;;4927622;29;20517;-51
2023/05/08 04:45:31;;;;;;;2.60;2.40;;;13.70;53.20;;;;;;4933613;29;20032;-51
2023/05/08 04:47:57;;;;;;;2.78;2.45;;;13.90;53.10;;;;;;4930295;29;20046;-59
2023/05/08 04:50:23;;;;;;;3.70;2.50;;;14.00;52.70;;;;;;4926939;29;20028;-59
2023/05/08 04:52:48;;;;;;;2.70;2.50;;;14.10;52.10;;;;;;4928494;29;20498;-56
2023/05/08 04:55:14;;;;;;;3.25;2.60;;;14.30;52.30;;;;;;4927430;29;20063;-56
2023/05/08 04:57:40;;;;;;;2.28;2.00;;;14.60;52.10;;;;;;4936239;29;20032;-65
2023/05/08 05:00:06;;;;;;;2.72;2.20;;;15.10;51.70;;;;;;4941598;29;20047;-65
2023/05/08 05:02:31;;;;;;;2.47;2.10;;;15.80;51.30;;;;;;4932046;29;20046;-54
2023/05/08 05:05:00;;;;;;;2.60;2.03;;;16.30;50.60;;;;;;4931485;29;20418;-51
2023/05/08 05:07:25;;;;;;;2.40;2.20;;;16.90;49.80;;;;;;4942993;29;20028;-68
2023/05/08 05:09:51;;;;;;;3.17;2.30;;;17.30;48.90;;;;;;4937981;29;20043;-64
2023/05/08 05:12:16;;;;;;;4.32;2.38;;;17.50;48.30;;;;;;4937446;29;20032;-58
2023/05/08 05:14:42;;;;;;;2.25;2.05;;;17.60;47.90;;;;;;4939479;29;20031;-58
2023/05/08 05:17:08;;;;;;;2.10;1.90;;;17.60;47.60;;;;;;4934999;29;20071;-61
2023/05/08 05:19:33;;;;;;;3.22;2.50;;;17.60;47.20;;;;;;4937702;29;20040;-66
2023/05/08 05:21:59;;;;;;;2.55;2.35;;;17.50;46.80;;;;;;4928739;29;20448;-59
2023/05/08 05:24:24;;;;;;;3.88;2.60;;;17.30;46.80;;;;;;4928914;29;20031;-60
2023/05/08 05:26:50;;;;;;;2.53;2.03;;;17.10;46.50;;;;;;4929643;29;20035;-60
2023/05/08 05:29:16;;;;;;;3.92;2.63;;;16.90;46.70;;;;;;4927228;29;20031;-60
2023/05/08 05:31:41;;;;;;;2.58;2.35;;;16.70;47.10;;;;;;4932665;29;20032;-57
2023/05/08 05:34:07;;;;;;;2.20;2.00;;;16.40;46.80;;;;;;4923368;29;20103;-58
2023/05/08 05:36:33;;;;;;;3.03;2.20;;;16.20;47.00;;;;;;4933153;29;20118;-58
2023/05/08 05:38:58;;;;;;;2.63;2.30;;;16.00;47.30;;;;;;4921896;29;20043;-58
2023/05/08 05:41:24;;;;;;;3.10;2.20;;;15.90;47.60;;;;;;4925690;29;20043;-56
2023/05/08 05:43:50;;;;;;;3.08;2.25;;;15.70;47.60;;;;;;4925218;29;20035;-57
2023/05/08 05:46:16;;;;;;;3.13;2.50;;;15.50;47.70;;;;;;4925357;29;20031;-60
2023/05/08 05:48:42;;;;;;;3.42;2.75;;;15.40;48.10;;;;;;4925649;29;20138;-60
2023/05/08 05:51:08;;;;;;;2.60;2.40;;;15.30;48.00;;;;;;4926392;29;20079;-61
2023/05/08 05:53:33;;;;;;;3.15;2.58;;;15.20;48.20;;;;;;4930853;29;20110;-60
2023/05/08 05:55:59;;;;;;;5.72;2.58;;;15.10;47.80;;;;;;4925368;29;20128;-59
2023/05/08 05:58:25;;;;;;;2.60;2.40;;;15.00;48.00;;;;;;4930532;29;20024;-60
2023/05/08 06:00:50;;;;;;;2.85;2.47;;;15.00;48.30;;;;;;4926458;29;20038;-53
2023/05/08 06:03:16;;;;;;;2.13;2.03;;;15.00;48.40;;;;;;4927803;29;20055;-52
2023/05/08 06:05:41;;;;;;;2.15;2.00;;;14.90;48.10;;;;;;4922492;29;20047;-59
2023/05/08 06:08:07;;;;;;;2.72;2.30;;;14.90;48.00;;;;;;4918355;29;20047;-57
2023/05/08 06:10:34;;;;;;;2.30;2.10;;;15.00;47.90;;;;;;4919912;29;20043;-57
2023/05/08 06:12:59;;;;;;;3.25;2.25;;;15.00;48.00;;;;;;4923935;29;20031;-57
2023/05/08 06:15:25;;;;;;;3.45;2.30;;;15.00;48.50;;;;;;4925370;29;20040;-57
2023/05/08 06:17:51;;;;;;;3.38;2.53;;;15.00;48.20;;;;;;4923486;29;20134;-57
2023/05/08 06:20:17;;;;;;;2.40;2.20;;;15.00;47.80;;;;;;4923425;29;20031;-57
2023/05/08 06:22:43;;;;;;;3.25;2.17;;;15.00;47.70;;;;;;4920072;29;20047;-58
2023/05/08 06:25:09;;;;;;;2.63;1.98;;;14.90;47.70;;;;;;4918494;29;20131;-56
2023/05/08 06:27:35;;;;;;;2.58;2.30;;;14.90;47.60;;;;;;4921367;29;20110;-58
2023/05/08 06:30:02;;;;;;;2.70;2.40;;;14.90;47.60;;;;;;4925565;29;20376;-56
2023/05/08 06:32:28;;;;;;;2.22;2.03;;;14.80;47.80;;;;;;4924925;29;20035;-57
2023/05/08 06:34:53;;;;;;;3.05;2.38;;;14.80;48.20;;;;;;4920608;29;22127;-57
2023/05/08 06:37:19;;;;;;;2.45;2.17;;;14.80;48.10;;;;;;4917700;29;20035;-56
2023/05/08 06:39:44;;;;;;;2.38;1.85;;;14.80;48.30;;;;;;4924517;29;20038;-57
2023/05/08 06:42:10;;;;;;;2.38;2.17;;;14.80;48.50;;;;;;4919662;29;20106;-57
2023/05/08 06:44:36;;;;;;;2.33;2.13;;;14.80;48.30;;;;;;4917574;29;20028;-56
2023/05/08 06:47:02;;;;;;;2.28;2.08;;;14.80;48.20;;;;;;4918751;29;21496;-57
2023/05/08 06:49:27;;;;;;;2.60;2.33;;;14.70;48.00;;;;;;4923453;29;20038;-53
2023/05/08 06:51:53;;;;;;;4.68;2.50;;;14.60;48.50;;;;;;4913563;29;20071;-56
2023/05/08 06:54:19;;;;;;;2.47;2.28;;;14.60;48.40;;;;;;4914944;29;20665;-57
2023/05/08 06:56:45;;;;;;;2.53;2.20;;;14.50;48.30;;;;;;4918363;29;20238;-56
2023/05/08 06:59:10;;;;;;;2.88;2.50;;;14.50;48.20;;;;;;4911093;29;20039;-57
2023/05/08 07:01:36;;;;;;;2.75;2.38;;;14.40;48.40;;;;;;4908610;29;20043;-56
2023/05/08 07:04:02;;;;;;;2.72;2.35;;;14.40;48.20;;;;;;4918002;29;20044;-57
2023/05/08 07:06:31;;;;;;;3.17;2.20;;;14.30;48.10;;;;;;4916354;29;20031;-57
2023/05/08 07:08:57;;;;;;;2.13;1.92;;;14.30;48.00;;;;;;4917028;29;20040;-56
2023/05/08 07:11:22;;;;;;;2.42;2.03;;;14.30;48.10;;;;;;4918034;29;20114;-57
2023/05/08 07:13:48;;;;;;;2.40;2.10;;;14.30;48.40;;;;;;4918069;29;20040;-56
2023/05/08 07:16:15;;;;;;;2.17;1.98;;;14.30;48.40;;;;;;4916975;29;20478;-58
2023/05/08 07:18:41;;;;;;;2.72;2.13;;;14.30;48.30;;;;;;4915482;29;20129;-56
2023/05/08 07:21:07;;;;;;;2.63;2.13;;;14.40;48.40;;;;;;4916093;29;20158;-57
2023/05/08 07:23:33;;;;;;;2.50;2.25;;;14.40;48.50;;;;;;4921818;29;21763;-57
2023/05/08 07:25:59;;;;;;;2.47;2.28;;;14.40;48.00;;;;;;4912385;29;20028;-58
2023/05/08 07:28:24;;;;;;;4.30;2.40;;;14.40;47.90;;;;;;4918331;29;20051;-56
2023/05/08 07:30:50;;;;;;;3.03;2.58;;;14.40;47.70;;;;;;4911688;29;20271;-57
2023/05/08 07:33:16;;;;;;;1.88;1.77;;;14.40;47.80;;;;;;4907217;29;20054;-56
2023/05/08 07:35:42;;;;;;;3.10;2.28;;;14.40;48.10;;;;;;4923332;29;20036;-56
2023/05/08 07:38:08;;;;;;;2.20;2.00;;;14.40;48.20;;;;;;4920088;29;20034;-57
2023/05/08 07:40:34;;;;;;;2.55;2.35;;;14.50;48.40;;;;;;4912555;29;20040;-55
2023/05/08 07:42:59;;;;;;;2.28;2.17;;;14.50;48.50;;;;;;4915795;29;20094;-57
2023/05/08 07:45:25;;;;;;;2.92;2.10;;;14.50;48.20;;;;;;4919398;29;20561;-57
2023/05/08 07:47:53;;;;;;;2.30;2.10;;;14.50;48.00;;;;;;4911426;29;20039;-57
2023/05/08 07:50:19;;;;;;;2.35;2.15;;;14.50;48.20;;;;;;4915308;29;20982;-57
2023/05/08 07:52:45;;;;;;;2.33;2.00;;;14.50;48.20;;;;;;4911239;29;20043;-57
2023/05/08 07:55:11;;;;;;;2.10;1.90;;;14.50;47.80;;;;;;4918019;29;20083;-57
2023/05/08 07:57:41;;;;;;;2.38;2.17;;;14.50;47.50;;;;;;4914035;29;20471;-59
2023/05/08 08:00:09;;;;;;;2.47;2.25;;;14.50;47.40;;;;;;4911116;29;20043;-56
2023/05/08 08:02:35;;;;;;;2.17;2.00;;;14.40;47.50;;;;;;4914325;29;20043;-56
2023/05/08 08:05:01;;;;;;;2.20;2.00;;;14.40;47.70;;;;;;4920588;29;21966;-56
2023/05/08 08:07:26;;;;;;;2.40;2.20;;;14.40;47.50;;;;;;4922116;29;20038;-55
2023/05/08 08:09:52;;;;;;;2.95;2.05;;;14.40;47.60;;;;;;4917205;29;20036;-57
2023/05/08 08:12:19;;;;;;;2.10;1.92;;;14.40;47.10;;;;;;4920645;29;20040;-57
2023/05/08 08:14:45;;;;;;;2.20;2.00;;;14.40;47.00;;;;;;4915598;29;20031;-57
2023/05/08 08:17:10;;;;;;;2.10;2.00;;;14.30;47.10;;;;;;4911120;29;20087;-57
2023/05/08 08:19:36;;;;;;;2.30;2.10;;;14.30;47.30;;;;;;4918692;29;20032;-57
2023/05/08 08:22:02;;;;;;;2.13;1.98;;;14.30;47.50;;;;;;4921384;29;20682;-57
2023/05/08 08:24:28;;;;;;;2.10;2.00;;;14.30;47.80;;;;;;4916707;29;20050;-58
2023/05/08 08:26:54;;;;;;;2.50;2.10;;;14.40;48.10;;;;;;4920414;29;20130;-58
2023/05/08 08:29:19;;;;;;;2.72;2.30;;;14.40;48.20;;;;;;4921484;29;20122;-56
2023/05/08 08:31:45;;;;;;;3.55;2.10;;;14.40;47.70;;;;;;4917906;29;20490;-57
2023/05/08 08:34:11;;;;;;;2.17;1.98;;;14.30;47.70;;;;;;4923337;29;20035;-57
2023/05/08 08:36:38;;;;;;;2.15;2.03;;;14.30;47.20;;;;;;4916950;29;20459;-57
2023/05/08 08:39:04;;;;;;;3.17;2.70;;;14.30;47.40;;;;;;4914655;29;20521;-59
2023/05/08 08:41:30;;;;;;;2.20;2.00;;;14.20;47.10;;;;;;4913925;29;20043;-57
2023/05/08 08:43:55;;;;;;;2.30;2.00;;;14.20;47.30;;;;;;4911215;29;20032;-58
2023/05/08 08:46:26;;;;;;;2.25;2.05;;;14.10;47.30;;;;;;4907606;29;20039;-58
2023/05/08 08:48:54;;;;;;;3.50;2.30;;;14.10;46.90;;;;;;4912705;29;20039;-58
2023/05/08 08:51:44;;;;;;;2.92;2.22;;;14.10;46.70;;;;;;4907935;29;20035;-60
2023/05/08 08:54:12;;;;;;;2.35;2.10;;;14.00;47.30;;;;;;4906548;29;20032;-57
2023/05/08 08:56:43;;;;;;;2.35;2.15;;;14.00;47.50;;;;;;4918796;29;20060;-57
2023/05/08 08:59:11;;;;;;;3.08;2.25;;;14.00;47.30;;;;;;4905135;29;20136;-57
2023/05/08 09:01:39;;;;;;;3.03;2.50;;;13.90;47.10;;;;;;4911800;29;20487;-58
2023/05/08 09:04:05;;;;;;;3.88;2.25;;;13.90;47.10;;;;;;4915554;29;20034;-60
2023/05/08 09:06:35;;;;;;;2.70;2.40;;;13.90;46.90;;;;;;4916848;29;20032;-58
2023/05/08 09:09:01;;;;;;;2.40;2.20;;;13.90;47.00;;;;;;4911787;29;20082;-59
2023/05/08 09:11:27;;;;;;;2.60;2.40;;;13.90;47.60;;;;;;4916026;29;20451;-59
2023/05/08 09:13:56;;;;;;;2.35;2.17;;;13.90;47.70;;;;;;4927618;29;20059;-59
2023/05/08 09:16:22;;;;;;;2.38;2.17;;;13.90;47.40;;;;;;4919881;29;20044;-59
2023/05/08 09:18:48;;;;;;;2.30;2.10;;;13.90;47.50;;;;;;4913932;29;20032;-58
2023/05/08 09:21:14;;;;;;;2.72;2.40;;;13.90;48.20;;;;;;4918998;29;20080;-59
2023/05/08 09:23:55;;;;;;;2.38;2.17;;;13.90;47.80;;;;;;4918071;29;20040;-59
2023/05/08 09:26:28;;;;;;;2.45;1.83;;;13.90;47.20;;;;;;4910468;29;20593;-59
2023/05/08 09:29:17;;;;;;;4.00;2.40;;;13.90;47.90;;;;;;4922663;29;20051;-57
2023/05/08 09:31:49;;;;;;;2.42;2.10;;;13.80;47.60;;;;;;4920564;29;20031;-57
2023/05/08 09:34:28;;;;;;;2.33;2.10;;;13.80;47.50;;;;;;4919870;29;20036;-58
2023/05/08 09:37:14;;;;;;;2.33;2.10;;;13.80;47.50;;;;;;4913212;29;20138;-58
2023/05/08 09:39:42;;;;;;;2.20;2.00;;;13.80;47.70;;;;;;4910973;29;20201;-57
2023/05/08 09:42:08;;;;;;;2.15;1.92;;;13.80;47.90;;;;;;4916594;29;20055;-58
2023/05/08 09:44:45;;;;;;;2.20;2.00;;;13.80;47.70;;;;;;4914840;29;20387;-59
2023/05/08 09:47:11;;;;;;;2.88;2.20;;;13.80;47.90;;;;;;4918132;29;20074;-57
2023/05/08 09:49:39;;;;;;;2.00;1.90;;;13.90;47.80;;;;;;4919993;29;20492;-58
2023/05/08 09:52:06;;;;;;;2.30;2.10;;;13.90;47.70;;;;;;4918991;29;20473;-58
2023/05/08 09:54:31;;;;;;;2.83;2.28;;;13.90;47.40;;;;;;4913610;29;20031;-58
2023/05/08 09:56:57;;;;;;;2.65;2.25;;;13.90;47.20;;;;;;4912849;29;20066;-59
2023/05/08 09:59:26;;;;;;;2.88;1.90;;;13.90;46.90;;;;;;4913685;29;20047;-58
2023/05/08 10:01:52;;;;;;;2.30;1.90;;;13.90;46.70;;;;;;4912160;29;20040;-58
2023/05/08 10:04:34;;;;;;;2.13;1.75;;;13.90;46.90;;;;;;4911336;29;20053;-58
2023/05/08 10:07:00;;;;;;;1.77;1.67;;;13.90;47.10;;;;;;4912743;29;20123;-59
2023/05/08 10:09:26;;;;;;;2.03;1.85;;;13.90;48.10;;;;;;4910594;29;20035;-59
2023/05/08 10:11:54;;;;;;;2.50;2.10;;;13.90;47.40;;;;;;4918106;29;20398;-55
2023/05/08 10:14:21;;;;;;;2.47;2.03;;;13.90;47.20;;;;;;4926345;29;20031;-56
2023/05/08 10:16:50;;;;;;;2.10;2.00;;;13.90;47.40;;;;;;4918306;29;20043;-57
2023/05/08 10:19:23;;;;;;;2.40;2.20;;;14.00;47.20;;;;;;4919808;29;20466;-55
2023/05/08 10:21:51;;;;;;;3.22;1.88;;;14.00;46.70;;;;;;4920769;29;20047;-55
2023/05/08 10:24:25;;;;;;;2.63;2.03;;;14.00;46.90;;;;;;4916138;29;20067;-56
2023/05/08 10:27:02;;;;;;;2.85;2.05;;;14.10;46.70;;;;;;4924342;29;20032;-56
2023/05/08 10:29:43;;;;;;;2.03;1.88;;;14.10;46.60;;;;;;4928035;29;20038;-54
2023/05/08 10:32:10;;;;;;;3.05;2.10;;;14.10;46.60;;;;;;4922740;29;20038;-57
2023/05/08 10:34:39;;;;;;;1.88;1.77;;;14.10;46.40;;;;;;4921194;29;20059;-58
2023/05/08 10:37:08;;;;;;;2.13;2.03;;;14.20;46.50;;;;;;4921271;29;20051;-50
2023/05/08 10:39:35;;;;;;;2.15;1.95;;;14.20;46.70;;;;;;4915802;29;20036;-57
2023/05/08 10:42:01;;;;;;;2.47;1.98;;;14.20;46.90;;;;;;4917685;29;20683;-59
2023/05/08 10:44:29;;;;;;;2.72;2.50;;;14.20;46.30;;;;;;4923690;29;20036;-55
2023/05/08 10:47:31;;;;;;;2.33;2.10;;;14.20;46.50;;;;;;4923549;29;20083;-56
2023/05/08 10:50:23;;;;;;;2.40;2.20;;;14.30;46.30;;;;;;4916276;29;20569;-54
2023/05/08 10:53:11;;;;;;;1.98;1.88;;;14.30;46.40;;;;;;4899780;29;20645;-57
2023/05/08 10:55:40;;;;;;;2.92;2.33;;;14.30;46.60;;;;;;4918995;29;20052;-56
2023/05/08 10:58:15;;;;;;;1.75;1.65;;;14.30;46.90;;;;;;4911493;29;20043;-54
2023/05/08 11:00:58;;;;;;;1.90;1.80;;;14.40;46.70;;;;;;4918347;29;20047;-55
2023/05/08 11:03:25;;;;;;;2.15;1.95;;;14.40;47.00;;;;;;4916646;29;20072;-59
2023/05/08 11:05:52;;;;;;;2.30;2.08;;;14.40;46.50;;;;;;4916857;29;20048;-57
2023/05/08 11:08:23;;;;;;;2.38;2.17;;;14.40;46.50;;;;;;4917875;29;20043;-55
2023/05/08 11:11:01;;;;;;;2.10;1.92;;;14.40;46.80;;;;;;4915789;29;20126;-52
2023/05/08 11:13:27;;;;;;;2.00;1.90;;;14.40;47.10;;;;;;4918241;29;20545;-54
2023/05/08 11:15:53;;;;;;;2.00;1.90;;;14.40;47.00;;;;;;4919633;29;20035;-56
2023/05/08 11:18:18;;;;;;;2.17;1.90;;;14.40;46.90;;;;;;4919329;29;20038;-55
2023/05/08 11:21:04;;;;;;;2.25;1.90;;;14.40;46.90;;;;;;4917823;29;20035;-52
2023/05/08 11:23:35;;;;;;;2.38;2.22;;;14.40;46.70;;;;;;4922011;29;20032;-50
2023/05/08 11:26:07;;;;;;;3.35;2.30;;;14.40;46.50;;;;;;4919791;29;20092;-52
2023/05/08 11:28:55;;;;;;;2.88;2.53;;;14.30;46.00;;;;;;4915566;29;20801;-60
2023/05/08 11:31:22;;;;;;;2.38;2.17;;;14.30;46.40;;;;;;4911414;29;20046;-52
2023/05/08 11:33:48;;;;;;;2.40;2.20;;;14.40;46.40;;;;;;4916919;29;20047;-57
2023/05/08 11:36:15;;;;;;;3.28;2.22;;;14.40;46.70;;;;;;4918182;29;20082;-54
2023/05/08 11:38:42;;;;;;;3.88;1.85;;;14.40;46.90;;;;;;4920415;29;20080;-57
2023/05/08 11:41:20;;;;;;;2.17;1.95;;;14.40;46.70;;;;;;4914203;29;20248;-58
2023/05/08 11:44:03;;;;;;;2.58;2.00;;;14.50;46.80;;;;;;4922719;29;20095;-60
2023/05/08 11:46:52;;;;;;;2.95;2.40;;;14.50;45.90;;;;;;4918594;29;20036;-52
2023/05/08 11:49:20;;;;;;;1.88;1.77;;;14.50;46.00;;;;;;4914173;29;20043;-57
2023/05/08 11:51:54;;;;;;;2.85;1.98;;;14.50;46.00;;;;;;4917582;29;20103;-55
2023/05/08 11:54:21;;;;;;;4.90;2.10;;;14.50;45.90;;;;;;4922828;29;20051;-56
2023/05/08 11:56:52;;;;;;;2.03;1.92;;;14.50;46.00;;;;;;4923102;29;20118;-51
2023/05/08 11:59:18;;;;;;;;;;;14.60;46.20;;;;;;4922246;29;20083;-52
2023/05/08 12:01:46;;;;;;;2.47;2.17;;;14.60;46.50;;;;;;4919301;29;19959;-55
2023/05/08 12:04:12;;;;;;;1.85;1.73;;;14.60;46.50;;;;;;4918351;29;20183;-58
2023/05/08 12:06:39;;;;;;;2.47;2.17;;;14.60;46.70;;;;;;4922568;29;20040;-53
2023/05/08 12:09:16;;;;;;;2.53;2.08;;;14.70;47.00;;;;;;4918299;29;20757;-57
2023/05/08 12:11:44;;;;;;;2.58;1.92;;;14.80;47.10;;;;;;4914127;29;20064;-52
2023/05/08 12:14:11;;;;;;;2.10;1.90;;;14.80;46.70;;;;;;4923325;29;20098;-51
2023/05/08 12:16:38;;;;;;;2.10;1.90;;;14.80;46.30;;;;;;4923430;29;20087;-61
2023/05/08 12:19:11;;;;;;;3.05;2.60;;;14.80;46.00;;;;;;4924476;29;20083;-56
2023/05/08 12:21:37;;;;;;;3.05;2.40;;;14.90;45.80;;;;;;4925312;29;20427;-55
2023/05/08 12:24:10;;;;;;;2.90;2.10;;;14.90;45.80;;;;;;4924974;29;20099;-59
2023/05/08 12:26:36;;;;;;;2.90;2.20;;;15.00;45.90;;;;;;4923312;29;20029;-57
2023/05/08 12:29:06;;;;;;;2.90;2.08;;;15.00;45.80;;;;;;4925188;29;20506;-57
2023/05/08 12:31:36;;;;;;;2.25;1.90;;;15.00;45.60;;;;;;4923187;29;20032;-54
2023/05/08 12:34:05;;;;;;;1.95;1.80;;;15.00;45.90;;;;;;4924172;29;20035;-53
2023/05/08 12:36:35;;;;;;;2.00;1.80;;;15.00;45.40;;;;;;4920139;29;20027;-52
2023/05/08 12:39:15;;;;;;;2.30;2.10;;;15.00;45.30;;;;;;4922583;29;20087;-59
2023/05/08 12:41:51;;;;;;;2.67;2.10;;;15.00;45.30;;;;;;4920958;29;20118;-63
2023/05/08 12:44:23;;;;;;;2.15;2.00;;;15.00;45.40;;;;;;4926771;29;20020;-58
2023/05/08 12:46:53;;;;;;;2.17;1.80;;;15.00;45.40;;;;;;4924087;29;20122;-59
2023/05/08 12:49:29;;;;;;;1.87;1.70;;;15.00;45.00;;;;;;4924148;29;20104;-55
2023/05/08 12:52:06;;;;;;;3.70;2.10;;;15.00;45.30;;;;;;4915862;29;20827;-58
2023/05/08 12:54:37;;;;;;;2.10;1.95;;;15.00;45.00;;;;;;4913291;29;20042;-59
2023/05/08 12:57:09;;;;;;;2.90;2.13;;;15.00;44.90;;;;;;4911351;29;20059;-60
2023/05/08 12:59:35;;;;;;;2.13;1.92;;;15.00;45.20;;;;;;4914299;29;20040;-54